Weather at Loxahatchee Airport

Public forecast

Using degrees Fahrenheit for public forecast. Weather courtesy of forecast.io.

Closest aviation weather report (METAR) to Loxahatchee Airport

Closest report is Palm Beach International Airport, 11.8 nm (21.9 km) ENE. Retrieved 2022/01/27 08:53 UTC (25 minutes ago):

KPBI 270853Z 32004KT 10SM BKN065 BKN100 19/18 A3001 RMK AO2 SLP161 T01890178 56007

Closest aviation forecast (TAF) to Loxahatchee Airport

Closest forecast is Palm Beach International Airport, 11.8 nm (21.9 km) ENE. Retrieved 2022/01/27 06:44 UTC (3 hours ago):

TAF KPBI 270538Z 2706/2806 VRB04KT P6SM SCT007 BKN035 FM270700 34004KT P6SM SCT007 BKN020 FM271500 33006KT P6SM SCT015 BKN025 FM271800 31007KT P6SM SCT020 BKN035 FM280000 VRB04KT P6SM SCT025 BKN050